METAR AND TAF INFORMATION
METAR FOR UADD
ADDS - METARS form results

(1215 UTC 17 June 2019)
Data provider http://aviationweather.gov/metar/data/
 
METAR text: UADD 171200Z VRB01MPS 9999 NSC 29/03 Q1009 R13/0///65 NOSIG RMK QFE700/0934
Conditions at: UADD (TARAZ , KZ) observed 1200 UTC 17 June 2019
Temperature: 29.0°C (84°F)
Dewpoint: 3.0°C (37°F) [RH = 19%]
Pressure (altimeter): 29.79 inches Hg (1009.0 mb)
Winds: variable direction winds at 2 MPH (2 knots; 1.0 m/s)
Visibility: 6 or more miles (10+ km)
Ceiling: at least 12,000 feet AGL
Clouds: sky clear below 12,000 feet AGL
Weather: no significant weather observed at this time

METAR text: UADD 171130Z 03003MPS 9999 NSC 28/03 Q1009 R31/0///65 NOSIG RMK QFE699/0932
Conditions at: UADD (TARAZ , KZ) observed 1130 UTC 17 June 2019
Temperature: 28.0°C (82°F)
Dewpoint: 3.0°C (37°F) [RH = 20%]
Pressure (altimeter): 29.79 inches Hg (1009.0 mb)
Winds: from the NNE (30 degrees) at 7 MPH (6 knots; 3.1 m/s)
Visibility: 6 or more miles (10+ km)
Ceiling: at least 12,000 feet AGL
Clouds: sky clear below 12,000 feet AGL
Weather: no significant weather observed at this time

Forecast for: UADD (TARAZ , KZ)
Text: TAF UADD 171100Z 1712/1721 02003G08MPS 9999 NSC
Forecast period: 1200 to 2100 UTC 17 June 2019
Forecast type: FROM: standard forecast or significant change
Winds: from the NNE (20 degrees) at 7 MPH (6 knots; 3.1 m/s)
gusting to 18 MPH (16 knots; 8.2 m/s)
Visibility: 6 or more miles 10+ km)
Ceiling: unknown
Clouds: missing
Weather: no significant weather forecast for this period

 AIRPORT MAP

 RUNWAY INFORMATION

 AIRPORT FREQUENCIES
Type APP Name APP Frequency 122.1 MHZ
Type TWR Name TWR Frequency 122.1 MHZ

 AIRPORT NEAR NAVIGATION AIDS
Type NDB Name Taraz Frequency 103 KHZ
Type NDB Name Taraz Frequency 103 KHZ



2018 Air Astana Virtual Airline